sensor_id;sensor_type;location;lat;lon;timestamp;P1;durP1;ratioP1;P2;durP2;ratioP2
44165;SDS011;30476;53.468;9.826;2024-02-15T00:02:15;11.87;;;8.10;;
44165;SDS011;30476;53.468;9.826;2024-02-15T00:04:41;8.90;;;7.40;;
44165;SDS011;30476;53.468;9.826;2024-02-15T00:07:07;13.67;;;8.17;;
44165;SDS011;30476;53.468;9.826;2024-02-15T00:09:33;16.43;;;8.80;;
44165;SDS011;30476;53.468;9.826;2024-02-15T00:11:59;12.40;;;8.20;;
44165;SDS011;30476;53.468;9.826;2024-02-15T00:14:25;10.33;;;8.30;;
44165;SDS011;30476;53.468;9.826;2024-02-15T00:16:54;9.13;;;7.27;;
44165;SDS011;30476;53.468;9.826;2024-02-15T00:19:20;8.33;;;7.40;;
44165;SDS011;30476;53.468;9.826;2024-02-15T00:21:47;11.43;;;8.67;;
44165;SDS011;30476;53.468;9.826;2024-02-15T00:24:13;12.67;;;8.73;;
44165;SDS011;30476;53.468;9.826;2024-02-15T00:26:40;12.80;;;9.07;;
44165;SDS011;30476;53.468;9.826;2024-02-15T00:29:07;12.40;;;9.00;;
44165;SDS011;30476;53.468;9.826;2024-02-15T00:31:33;11.00;;;9.47;;
44165;SDS011;30476;53.468;9.826;2024-02-15T00:33:58;12.00;;;10.03;;
44165;SDS011;30476;53.468;9.826;2024-02-15T00:36:24;11.20;;;8.93;;
44165;SDS011;30476;53.468;9.826;2024-02-15T00:38:50;10.53;;;9.13;;
44165;SDS011;30476;53.468;9.826;2024-02-15T00:41:17;9.50;;;8.47;;
44165;SDS011;30476;53.468;9.826;2024-02-15T00:43:45;10.23;;;8.53;;
44165;SDS011;30476;53.468;9.826;2024-02-15T00:46:11;8.63;;;7.73;;
44165;SDS011;30476;53.468;9.826;2024-02-15T00:48:36;14.47;;;9.03;;
44165;SDS011;30476;53.468;9.826;2024-02-15T00:51:02;12.83;;;9.50;;
44165;SDS011;30476;53.468;9.826;2024-02-15T00:53:28;9.40;;;8.50;;
44165;SDS011;30476;53.468;9.826;2024-02-15T00:55:55;8.50;;;6.80;;
44165;SDS011;30476;53.468;9.826;2024-02-15T00:58:21;12.30;;;7.80;;
44165;SDS011;30476;53.468;9.826;2024-02-15T01:00:47;11.27;;;8.77;;
44165;SDS011;30476;53.468;9.826;2024-02-15T01:03:12;9.23;;;7.53;;
44165;SDS011;30476;53.468;9.826;2024-02-15T01:05:39;14.73;;;8.07;;
44165;SDS011;30476;53.468;9.826;2024-02-15T01:08:05;14.23;;;9.00;;
44165;SDS011;30476;53.468;9.826;2024-02-15T01:10:30;16.03;;;8.43;;
44165;SDS011;30476;53.468;9.826;2024-02-15T01:12:56;12.23;;;7.50;;
44165;SDS011;30476;53.468;9.826;2024-02-15T01:15:22;8.17;;;7.33;;
44165;SDS011;30476;53.468;9.826;2024-02-15T01:17:48;7.30;;;6.50;;
44165;SDS011;30476;53.468;9.826;2024-02-15T01:20:13;10.43;;;8.20;;
44165;SDS011;30476;53.468;9.826;2024-02-15T01:22:39;11.17;;;8.27;;
44165;SDS011;30476;53.468;9.826;2024-02-15T01:25:05;11.30;;;8.07;;
44165;SDS011;30476;53.468;9.826;2024-02-15T01:27:32;9.20;;;7.63;;
44165;SDS011;30476;53.468;9.826;2024-02-15T01:29:59;15.10;;;9.20;;
44165;SDS011;30476;53.468;9.826;2024-02-15T01:32:25;11.67;;;9.20;;
44165;SDS011;30476;53.468;9.826;2024-02-15T01:34:50;15.93;;;9.83;;
44165;SDS011;30476;53.468;9.826;2024-02-15T01:37:19;11.60;;;8.93;;
44165;SDS011;30476;53.468;9.826;2024-02-15T01:39:46;15.10;;;10.30;;
44165;SDS011;30476;53.468;9.826;2024-02-15T01:42:12;11.70;;;9.70;;
44165;SDS011;30476;53.468;9.826;2024-02-15T01:44:42;14.67;;;9.87;;
44165;SDS011;30476;53.468;9.826;2024-02-15T01:47:10;13.40;;;10.00;;
44165;SDS011;30476;53.468;9.826;2024-02-15T01:49:36;12.77;;;9.40;;
44165;SDS011;30476;53.468;9.826;2024-02-15T01:52:02;11.83;;;9.47;;
44165;SDS011;30476;53.468;9.826;2024-02-15T01:54:33;19.33;;;9.80;;
44165;SDS011;30476;53.468;9.826;2024-02-15T01:57:01;11.73;;;10.47;;
44165;SDS011;30476;53.468;9.826;2024-02-15T01:59:28;9.63;;;8.63;;
44165;SDS011;30476;53.468;9.826;2024-02-15T02:01:55;12.90;;;9.77;;
44165;SDS011;30476;53.468;9.826;2024-02-15T02:04:21;16.10;;;9.57;;
44165;SDS011;30476;53.468;9.826;2024-02-15T02:06:47;13.83;;;9.90;;
44165;SDS011;30476;53.468;9.826;2024-02-15T02:09:13;12.20;;;9.60;;
44165;SDS011;30476;53.468;9.826;2024-02-15T02:11:44;12.30;;;11.00;;
44165;SDS011;30476;53.468;9.826;2024-02-15T02:14:11;10.30;;;9.20;;
44165;SDS011;30476;53.468;9.826;2024-02-15T02:16:37;15.40;;;10.40;;
44165;SDS011;30476;53.468;9.826;2024-02-15T02:19:04;14.77;;;9.10;;
44165;SDS011;30476;53.468;9.826;2024-02-15T02:21:34;13.40;;;9.57;;
44165;SDS011;30476;53.468;9.826;2024-02-15T02:24:04;12.53;;;9.83;;
44165;SDS011;30476;53.468;9.826;2024-02-15T02:26:45;10.70;;;9.13;;
44165;SDS011;30476;53.468;9.826;2024-02-15T02:29:11;10.83;;;9.70;;
44165;SDS011;30476;53.468;9.826;2024-02-15T02:31:38;11.67;;;8.93;;
44165;SDS011;30476;53.468;9.826;2024-02-15T02:34:04;12.73;;;8.30;;
44165;SDS011;30476;53.468;9.826;2024-02-15T02:36:31;8.80;;;7.60;;
44165;SDS011;30476;53.468;9.826;2024-02-15T02:38:57;12.43;;;7.37;;
44165;SDS011;30476;53.468;9.826;2024-02-15T02:41:26;10.50;;;8.00;;
44165;SDS011;30476;53.468;9.826;2024-02-15T02:43:54;8.80;;;8.00;;
44165;SDS011;30476;53.468;9.826;2024-02-15T02:46:23;9.70;;;7.93;;
44165;SDS011;30476;53.468;9.826;2024-02-15T02:48:49;7.23;;;6.53;;
44165;SDS011;30476;53.468;9.826;2024-02-15T02:51:15;7.60;;;6.70;;
44165;SDS011;30476;53.468;9.826;2024-02-15T02:53:41;6.43;;;5.53;;
44165;SDS011;30476;53.468;9.826;2024-02-15T02:56:07;6.77;;;6.17;;
44165;SDS011;30476;53.468;9.826;2024-02-15T02:58:34;8.20;;;6.20;;
44165;SDS011;30476;53.468;9.826;2024-02-15T03:01:00;8.73;;;6.90;;
44165;SDS011;30476;53.468;9.826;2024-02-15T03:03:26;8.20;;;6.40;;
44165;SDS011;30476;53.468;9.826;2024-02-15T03:05:52;6.17;;;5.57;;
44165;SDS011;30476;53.468;9.826;2024-02-15T03:08:19;6.43;;;5.80;;
44165;SDS011;30476;53.468;9.826;2024-02-15T03:10:46;6.90;;;5.10;;
44165;SDS011;30476;53.468;9.826;2024-02-15T03:13:12;9.07;;;6.57;;
44165;SDS011;30476;53.468;9.826;2024-02-15T03:15:37;6.60;;;5.97;;
44165;SDS011;30476;53.468;9.826;2024-02-15T03:18:03;6.67;;;5.87;;
44165;SDS011;30476;53.468;9.826;2024-02-15T03:20:33;6.00;;;5.40;;
44165;SDS011;30476;53.468;9.826;2024-02-15T03:23:02;8.43;;;7.13;;
44165;SDS011;30476;53.468;9.826;2024-02-15T03:25:28;9.67;;;7.77;;
44165;SDS011;30476;53.468;9.826;2024-02-15T03:27:55;8.37;;;7.10;;
44165;SDS011;30476;53.468;9.826;2024-02-15T03:30:23;12.90;;;9.07;;
44165;SDS011;30476;53.468;9.826;2024-02-15T03:32:50;11.23;;;8.20;;
44165;SDS011;30476;53.468;9.826;2024-02-15T03:35:20;11.77;;;8.67;;
44165;SDS011;30476;53.468;9.826;2024-02-15T03:37:49;13.93;;;9.00;;
44165;SDS011;30476;53.468;9.826;2024-02-15T03:40:19;8.93;;;8.00;;
44165;SDS011;30476;53.468;9.826;2024-02-15T03:42:46;9.77;;;8.10;;
44165;SDS011;30476;53.468;9.826;2024-02-15T03:45:12;14.20;;;9.40;;
44165;SDS011;30476;53.468;9.826;2024-02-15T03:47:38;13.53;;;8.93;;
44165;SDS011;30476;53.468;9.826;2024-02-15T03:50:05;12.23;;;9.10;;
44165;SDS011;30476;53.468;9.826;2024-02-15T03:52:33;13.53;;;8.30;;
44165;SDS011;30476;53.468;9.826;2024-02-15T03:54:59;13.87;;;9.80;;
44165;SDS011;30476;53.468;9.826;2024-02-15T03:57:25;12.60;;;9.60;;
44165;SDS011;30476;53.468;9.826;2024-02-15T03:59:51;17.43;;;9.30;;
44165;SDS011;30476;53.468;9.826;2024-02-15T04:02:22;17.37;;;10.23;;
44165;SDS011;30476;53.468;9.826;2024-02-15T04:04:55;14.13;;;9.90;;
44165;SDS011;30476;53.468;9.826;2024-02-15T04:07:21;13.87;;;10.00;;
44165;SDS011;30476;53.468;9.826;2024-02-15T04:09:49;19.00;;;11.20;;
44165;SDS011;30476;53.468;9.826;2024-02-15T04:12:15;16.20;;;11.47;;
44165;SDS011;30476;53.468;9.826;2024-02-15T04:14:42;17.77;;;9.97;;
44165;SDS011;30476;53.468;9.826;2024-02-15T04:17:10;14.50;;;10.40;;
44165;SDS011;30476;53.468;9.826;2024-02-15T04:19:45;18.17;;;11.47;;
44165;SDS011;30476;53.468;9.826;2024-02-15T04:22:11;14.30;;;11.97;;
44165;SDS011;30476;53.468;9.826;2024-02-15T04:24:38;17.90;;;11.37;;
44165;SDS011;30476;53.468;9.826;2024-02-15T04:27:05;14.10;;;10.97;;
44165;SDS011;30476;53.468;9.826;2024-02-15T04:29:34;12.13;;;10.17;;
44165;SDS011;30476;53.468;9.826;2024-02-15T04:32:00;18.93;;;11.20;;
44165;SDS011;30476;53.468;9.826;2024-02-15T04:34:25;12.63;;;10.67;;
44165;SDS011;30476;53.468;9.826;2024-02-15T04:36:51;14.13;;;9.40;;
44165;SDS011;30476;53.468;9.826;2024-02-15T04:39:20;16.60;;;11.57;;
44165;SDS011;30476;53.468;9.826;2024-02-15T04:41:51;11.37;;;9.27;;
44165;SDS011;30476;53.468;9.826;2024-02-15T04:44:18;16.13;;;10.30;;
44165;SDS011;30476;53.468;9.826;2024-02-15T04:46:45;14.77;;;11.23;;
44165;SDS011;30476;53.468;9.826;2024-02-15T04:49:12;13.27;;;10.57;;
44165;SDS011;30476;53.468;9.826;2024-02-15T04:51:39;16.93;;;10.93;;
44165;SDS011;30476;53.468;9.826;2024-02-15T04:54:06;10.20;;;9.07;;
44165;SDS011;30476;53.468;9.826;2024-02-15T04:56:33;16.87;;;11.30;;
44165;SDS011;30476;53.468;9.826;2024-02-15T04:59:01;12.10;;;10.30;;
44165;SDS011;30476;53.468;9.826;2024-02-15T05:01:27;16.67;;;11.33;;
44165;SDS011;30476;53.468;9.826;2024-02-15T05:03:54;14.50;;;10.43;;
44165;SDS011;30476;53.468;9.826;2024-02-15T05:06:21;14.57;;;11.00;;
44165;SDS011;30476;53.468;9.826;2024-02-15T05:08:46;13.40;;;10.30;;
44165;SDS011;30476;53.468;9.826;2024-02-15T05:11:12;16.03;;;10.90;;
44165;SDS011;30476;53.468;9.826;2024-02-15T05:13:43;15.47;;;11.13;;
44165;SDS011;30476;53.468;9.826;2024-02-15T05:16:10;17.80;;;9.80;;
44165;SDS011;30476;53.468;9.826;2024-02-15T05:18:36;14.27;;;10.60;;
44165;SDS011;30476;53.468;9.826;2024-02-15T05:21:03;16.33;;;12.33;;
44165;SDS011;30476;53.468;9.826;2024-02-15T05:23:30;12.40;;;10.53;;
44165;SDS011;30476;53.468;9.826;2024-02-15T05:25:55;11.30;;;9.57;;
44165;SDS011;30476;53.468;9.826;2024-02-15T05:28:22;12.60;;;9.40;;
44165;SDS011;30476;53.468;9.826;2024-02-15T05:31:13;13.47;;;9.80;;
44165;SDS011;30476;53.468;9.826;2024-02-15T05:33:43;17.40;;;12.47;;
44165;SDS011;30476;53.468;9.826;2024-02-15T05:36:12;16.47;;;11.77;;
44165;SDS011;30476;53.468;9.826;2024-02-15T05:38:39;16.80;;;11.87;;
44165;SDS011;30476;53.468;9.826;2024-02-15T05:41:06;16.20;;;11.43;;
44165;SDS011;30476;53.468;9.826;2024-02-15T05:43:35;13.53;;;10.33;;
44165;SDS011;30476;53.468;9.826;2024-02-15T05:46:04;15.73;;;9.83;;
44165;SDS011;30476;53.468;9.826;2024-02-15T05:48:32;12.03;;;9.37;;
44165;SDS011;30476;53.468;9.826;2024-02-15T05:51:03;14.83;;;10.00;;
44165;SDS011;30476;53.468;9.826;2024-02-15T05:53:30;19.77;;;9.87;;
44165;SDS011;30476;53.468;9.826;2024-02-15T05:55:56;14.03;;;11.10;;
44165;SDS011;30476;53.468;9.826;2024-02-15T05:58:25;23.20;;;12.40;;
44165;SDS011;30476;53.468;9.826;2024-02-15T06:00:50;20.20;;;10.13;;
44165;SDS011;30476;53.468;9.826;2024-02-15T06:03:17;17.10;;;10.80;;
44165;SDS011;30476;53.468;9.826;2024-02-15T06:05:43;20.60;;;10.40;;
44165;SDS011;30476;53.468;9.826;2024-02-15T06:08:10;17.80;;;11.90;;
44165;SDS011;30476;53.468;9.826;2024-02-15T06:10:39;15.40;;;9.70;;
44165;SDS011;30476;53.468;9.826;2024-02-15T06:13:06;15.30;;;11.53;;
44165;SDS011;30476;53.468;9.826;2024-02-15T06:15:34;11.73;;;8.80;;
44165;SDS011;30476;53.468;9.826;2024-02-15T06:18:01;19.27;;;10.47;;
44165;SDS011;30476;53.468;9.826;2024-02-15T06:20:34;14.53;;;9.40;;
44165;SDS011;30476;53.468;9.826;2024-02-15T06:23:00;17.43;;;11.30;;
44165;SDS011;30476;53.468;9.826;2024-02-15T06:25:31;15.40;;;11.70;;
44165;SDS011;30476;53.468;9.826;2024-02-15T06:27:57;13.70;;;9.60;;
44165;SDS011;30476;53.468;9.826;2024-02-15T06:30:27;13.40;;;9.03;;
44165;SDS011;30476;53.468;9.826;2024-02-15T06:33:12;13.37;;;9.67;;
44165;SDS011;30476;53.468;9.826;2024-02-15T06:35:57;11.07;;;10.00;;
44165;SDS011;30476;53.468;9.826;2024-02-15T06:38:41;13.40;;;9.83;;
44165;SDS011;30476;53.468;9.826;2024-02-15T06:41:25;12.07;;;9.93;;
44165;SDS011;30476;53.468;9.826;2024-02-15T06:43:53;15.40;;;9.83;;
44165;SDS011;30476;53.468;9.826;2024-02-15T06:46:19;12.93;;;9.53;;
44165;SDS011;30476;53.468;9.826;2024-02-15T06:48:45;14.47;;;10.17;;
44165;SDS011;30476;53.468;9.826;2024-02-15T06:51:12;15.10;;;10.20;;
44165;SDS011;30476;53.468;9.826;2024-02-15T06:53:40;21.30;;;11.07;;
44165;SDS011;30476;53.468;9.826;2024-02-15T06:56:08;18.13;;;11.37;;
44165;SDS011;30476;53.468;9.826;2024-02-15T06:58:35;14.63;;;9.97;;
44165;SDS011;30476;53.468;9.826;2024-02-15T07:01:01;16.43;;;11.17;;
44165;SDS011;30476;53.468;9.826;2024-02-15T07:03:30;15.30;;;10.60;;
44165;SDS011;30476;53.468;9.826;2024-02-15T07:05:57;19.83;;;11.33;;
44165;SDS011;30476;53.468;9.826;2024-02-15T07:08:23;17.30;;;11.93;;
44165;SDS011;30476;53.468;9.826;2024-02-15T07:10:50;14.27;;;10.83;;
44165;SDS011;30476;53.468;9.826;2024-02-15T07:13:17;13.20;;;10.93;;
44165;SDS011;30476;53.468;9.826;2024-02-15T07:15:43;14.70;;;12.50;;
44165;SDS011;30476;53.468;9.826;2024-02-15T07:18:10;22.30;;;12.03;;
44165;SDS011;30476;53.468;9.826;2024-02-15T07:20:37;21.17;;;11.23;;
44165;SDS011;30476;53.468;9.826;2024-02-15T07:23:05;16.63;;;11.17;;
44165;SDS011;30476;53.468;9.826;2024-02-15T07:25:31;14.70;;;10.13;;
44165;SDS011;30476;53.468;9.826;2024-02-15T07:27:57;22.03;;;11.40;;
44165;SDS011;30476;53.468;9.826;2024-02-15T07:30:22;14.33;;;10.10;;
44165;SDS011;30476;53.468;9.826;2024-02-15T07:32:49;15.40;;;8.77;;
44165;SDS011;30476;53.468;9.826;2024-02-15T07:35:15;13.37;;;9.67;;
44165;SDS011;30476;53.468;9.826;2024-02-15T07:37:52;12.23;;;9.60;;
44165;SDS011;30476;53.468;9.826;2024-02-15T07:40:21;13.80;;;9.30;;
44165;SDS011;30476;53.468;9.826;2024-02-15T07:42:48;13.30;;;10.37;;
44165;SDS011;30476;53.468;9.826;2024-02-15T07:45:14;11.93;;;9.37;;
44165;SDS011;30476;53.468;9.826;2024-02-15T07:47:40;16.17;;;10.17;;
44165;SDS011;30476;53.468;9.826;2024-02-15T07:50:06;17.33;;;9.00;;
44165;SDS011;30476;53.468;9.826;2024-02-15T07:52:34;17.90;;;10.17;;
44165;SDS011;30476;53.468;9.826;2024-02-15T07:55:00;10.17;;;8.20;;
44165;SDS011;30476;53.468;9.826;2024-02-15T07:57:34;10.53;;;8.47;;
44165;SDS011;30476;53.468;9.826;2024-02-15T08:00:00;10.17;;;7.80;;
44165;SDS011;30476;53.468;9.826;2024-02-15T08:02:25;11.80;;;7.83;;
44165;SDS011;30476;53.468;9.826;2024-02-15T08:04:53;10.43;;;7.33;;
44165;SDS011;30476;53.468;9.826;2024-02-15T08:07:20;8.27;;;6.30;;
44165;SDS011;30476;53.468;9.826;2024-02-15T08:09:46;11.20;;;7.50;;
44165;SDS011;30476;53.468;9.826;2024-02-15T08:12:15;10.97;;;7.10;;
44165;SDS011;30476;53.468;9.826;2024-02-15T08:14:44;9.87;;;7.27;;
44165;SDS011;30476;53.468;9.826;2024-02-15T08:17:09;6.30;;;5.70;;
44165;SDS011;30476;53.468;9.826;2024-02-15T08:19:39;10.30;;;6.70;;
44165;SDS011;30476;53.468;9.826;2024-02-15T08:22:07;6.77;;;5.40;;
44165;SDS011;30476;53.468;9.826;2024-02-15T08:24:33;9.37;;;4.90;;
44165;SDS011;30476;53.468;9.826;2024-02-15T08:26:58;6.03;;;5.30;;
44165;SDS011;30476;53.468;9.826;2024-02-15T08:29:25;5.03;;;4.33;;
44165;SDS011;30476;53.468;9.826;2024-02-15T08:31:50;9.00;;;5.53;;
44165;SDS011;30476;53.468;9.826;2024-02-15T08:34:16;4.40;;;3.97;;
44165;SDS011;30476;53.468;9.826;2024-02-15T08:36:44;6.50;;;4.90;;
44165;SDS011;30476;53.468;9.826;2024-02-15T08:39:09;8.30;;;4.83;;
44165;SDS011;30476;53.468;9.826;2024-02-15T08:41:37;4.43;;;4.03;;
44165;SDS011;30476;53.468;9.826;2024-02-15T08:44:04;6.70;;;4.87;;
44165;SDS011;30476;53.468;9.826;2024-02-15T08:46:34;4.30;;;3.90;;
44165;SDS011;30476;53.468;9.826;2024-02-15T08:49:01;7.97;;;4.57;;
44165;SDS011;30476;53.468;9.826;2024-02-15T08:51:28;5.33;;;4.90;;
44165;SDS011;30476;53.468;9.826;2024-02-15T08:53:58;7.30;;;4.57;;
44165;SDS011;30476;53.468;9.826;2024-02-15T08:56:25;5.00;;;3.93;;
44165;SDS011;30476;53.468;9.826;2024-02-15T08:58:51;4.83;;;4.00;;
44165;SDS011;30476;53.468;9.826;2024-02-15T09:01:16;6.90;;;5.80;;
44165;SDS011;30476;53.468;9.826;2024-02-15T09:03:42;5.77;;;5.17;;
44165;SDS011;30476;53.468;9.826;2024-02-15T09:06:10;6.07;;;5.00;;
44165;SDS011;30476;53.468;9.826;2024-02-15T09:08:36;5.10;;;4.60;;
44165;SDS011;30476;53.468;9.826;2024-02-15T09:11:01;6.93;;;5.60;;
44165;SDS011;30476;53.468;9.826;2024-02-15T09:13:27;6.50;;;5.20;;
44165;SDS011;30476;53.468;9.826;2024-02-15T09:15:53;6.67;;;5.40;;
44165;SDS011;30476;53.468;9.826;2024-02-15T09:18:20;6.83;;;5.90;;
44165;SDS011;30476;53.468;9.826;2024-02-15T09:20:48;6.60;;;5.80;;
44165;SDS011;30476;53.468;9.826;2024-02-15T09:23:14;6.00;;;5.40;;
44165;SDS011;30476;53.468;9.826;2024-02-15T09:25:40;7.70;;;6.33;;
44165;SDS011;30476;53.468;9.826;2024-02-15T09:28:10;7.80;;;6.70;;
44165;SDS011;30476;53.468;9.826;2024-02-15T09:30:35;7.67;;;6.37;;
44165;SDS011;30476;53.468;9.826;2024-02-15T09:33:01;6.17;;;5.47;;
44165;SDS011;30476;53.468;9.826;2024-02-15T09:35:30;5.90;;;5.30;;
44165;SDS011;30476;53.468;9.826;2024-02-15T09:37:56;5.57;;;5.07;;
44165;SDS011;30476;53.468;9.826;2024-02-15T09:40:22;13.53;;;6.63;;
44165;SDS011;30476;53.468;9.826;2024-02-15T09:42:51;6.53;;;5.80;;
44165;SDS011;30476;53.468;9.826;2024-02-15T09:45:18;6.70;;;6.20;;
44165;SDS011;30476;53.468;9.826;2024-02-15T09:47:46;12.93;;;8.03;;
44165;SDS011;30476;53.468;9.826;2024-02-15T09:50:15;7.43;;;6.73;;
44165;SDS011;30476;53.468;9.826;2024-02-15T09:52:45;7.67;;;6.90;;
44165;SDS011;30476;53.468;9.826;2024-02-15T09:55:16;11.33;;;7.50;;
44165;SDS011;30476;53.468;9.826;2024-02-15T09:57:42;8.53;;;6.37;;
44165;SDS011;30476;53.468;9.826;2024-02-15T10:00:11;8.83;;;6.53;;
44165;SDS011;30476;53.468;9.826;2024-02-15T10:02:47;9.30;;;7.23;;
44165;SDS011;30476;53.468;9.826;2024-02-15T10:05:17;8.70;;;7.80;;
44165;SDS011;30476;53.468;9.826;2024-02-15T10:07:43;7.50;;;6.80;;
44165;SDS011;30476;53.468;9.826;2024-02-15T10:10:19;11.00;;;8.60;;
44165;SDS011;30476;53.468;9.826;2024-02-15T10:12:51;8.80;;;7.37;;
44165;SDS011;30476;53.468;9.826;2024-02-15T10:15:26;12.23;;;8.60;;
44165;SDS011;30476;53.468;9.826;2024-02-15T10:17:57;10.80;;;7.20;;
44165;SDS011;30476;53.468;9.826;2024-02-15T10:20:26;11.53;;;10.13;;
44165;SDS011;30476;53.468;9.826;2024-02-15T10:22:53;9.97;;;8.33;;
44165;SDS011;30476;53.468;9.826;2024-02-15T10:25:34;11.47;;;9.10;;
44165;SDS011;30476;53.468;9.826;2024-02-15T10:28:07;13.57;;;10.07;;
44165;SDS011;30476;53.468;9.826;2024-02-15T10:30:34;10.17;;;8.90;;
44165;SDS011;30476;53.468;9.826;2024-02-15T10:33:01;11.77;;;9.80;;
44165;SDS011;30476;53.468;9.826;2024-02-15T10:35:35;12.67;;;10.50;;
44165;SDS011;30476;53.468;9.826;2024-02-15T10:38:05;14.67;;;10.70;;
44165;SDS011;30476;53.468;9.826;2024-02-15T10:40:33;14.40;;;11.03;;
44165;SDS011;30476;53.468;9.826;2024-02-15T10:42:59;21.53;;;12.67;;
44165;SDS011;30476;53.468;9.826;2024-02-15T10:45:30;14.10;;;10.80;;
44165;SDS011;30476;53.468;9.826;2024-02-15T10:47:56;18.53;;;12.30;;
44165;SDS011;30476;53.468;9.826;2024-02-15T10:50:23;14.60;;;11.40;;
44165;SDS011;30476;53.468;9.826;2024-02-15T10:52:56;18.90;;;12.73;;
44165;SDS011;30476;53.468;9.826;2024-02-15T10:55:29;18.70;;;11.70;;
44165;SDS011;30476;53.468;9.826;2024-02-15T10:58:00;14.40;;;10.93;;
44165;SDS011;30476;53.468;9.826;2024-02-15T11:00:30;16.67;;;11.67;;
44165;SDS011;30476;53.468;9.826;2024-02-15T11:05:31;12.67;;;10.50;;
44165;SDS011;30476;53.468;9.826;2024-02-15T11:08:04;17.40;;;14.50;;
44165;SDS011;30476;53.468;9.826;2024-02-15T11:10:32;102.80;;;53.07;;
44165;SDS011;30476;53.468;9.826;2024-02-15T11:12:59;38.23;;;19.70;;
44165;SDS011;30476;53.468;9.826;2024-02-15T11:15:44;22.53;;;16.27;;
44165;SDS011;30476;53.468;9.826;2024-02-15T11:18:12;21.10;;;15.27;;
44165;SDS011;30476;53.468;9.826;2024-02-15T11:23:07;17.13;;;13.60;;
44165;SDS011;30476;53.468;9.826;2024-02-15T11:25:36;21.27;;;14.03;;
44165;SDS011;30476;53.468;9.826;2024-02-15T11:30:55;16.00;;;12.23;;
44165;SDS011;30476;53.468;9.826;2024-02-15T11:36:02;19.47;;;13.00;;
44165;SDS011;30476;53.468;9.826;2024-02-15T11:38:33;17.03;;;13.00;;
44165;SDS011;30476;53.468;9.826;2024-02-15T11:41:03;14.70;;;10.80;;
44165;SDS011;30476;53.468;9.826;2024-02-15T11:43:46;16.20;;;12.37;;
44165;SDS011;30476;53.468;9.826;2024-02-15T11:46:26;14.00;;;11.40;;
44165;SDS011;30476;53.468;9.826;2024-02-15T11:48:56;12.63;;;10.40;;
44165;SDS011;30476;53.468;9.826;2024-02-15T11:54:04;14.90;;;9.77;;
44165;SDS011;30476;53.468;9.826;2024-02-15T11:59:09;10.77;;;9.63;;
44165;SDS011;30476;53.468;9.826;2024-02-15T12:01:44;8.30;;;7.50;;
44165;SDS011;30476;53.468;9.826;2024-02-15T12:04:29;9.27;;;8.37;;
44165;SDS011;30476;53.468;9.826;2024-02-15T12:07:14;9.27;;;7.30;;
44165;SDS011;30476;53.468;9.826;2024-02-15T12:09:59;8.30;;;7.47;;
44165;SDS011;30476;53.468;9.826;2024-02-15T12:12:50;9.90;;;7.20;;
44165;SDS011;30476;53.468;9.826;2024-02-15T12:15:37;6.20;;;5.80;;
44165;SDS011;30476;53.468;9.826;2024-02-15T12:18:22;8.47;;;6.70;;
44165;SDS011;30476;53.468;9.826;2024-02-15T12:21:07;6.93;;;6.27;;
44165;SDS011;30476;53.468;9.826;2024-02-15T12:23:38;9.10;;;6.20;;
44165;SDS011;30476;53.468;9.826;2024-02-15T12:26:06;6.33;;;5.80;;
44165;SDS011;30476;53.468;9.826;2024-02-15T12:28:33;5.67;;;5.13;;
44165;SDS011;30476;53.468;9.826;2024-02-15T12:31:00;6.27;;;5.67;;
44165;SDS011;30476;53.468;9.826;2024-02-15T12:33:27;6.77;;;5.60;;
44165;SDS011;30476;53.468;9.826;2024-02-15T12:36:05;5.27;;;4.87;;
44165;SDS011;30476;53.468;9.826;2024-02-15T12:38:32;3.77;;;3.47;;
44165;SDS011;30476;53.468;9.826;2024-02-15T12:44:21;4.10;;;3.80;;
44165;SDS011;30476;53.468;9.826;2024-02-15T12:50:15;5.53;;;4.33;;
44165;SDS011;30476;53.468;9.826;2024-02-15T12:52:49;4.50;;;4.27;;
44165;SDS011;30476;53.468;9.826;2024-02-15T12:55:16;4.33;;;3.90;;
44165;SDS011;30476;53.468;9.826;2024-02-15T12:57:45;5.30;;;4.37;;
44165;SDS011;30476;53.468;9.826;2024-02-15T13:00:19;5.00;;;4.53;;
44165;SDS011;30476;53.468;9.826;2024-02-15T13:02:53;4.17;;;3.97;;
44165;SDS011;30476;53.468;9.826;2024-02-15T13:05:21;5.10;;;4.03;;
44165;SDS011;30476;53.468;9.826;2024-02-15T13:07:49;4.37;;;4.00;;
44165;SDS011;30476;53.468;9.826;2024-02-15T13:10:15;3.93;;;3.53;;
44165;SDS011;30476;53.468;9.826;2024-02-15T13:12:42;5.20;;;4.70;;
44165;SDS011;30476;53.468;9.826;2024-02-15T13:15:10;3.93;;;3.73;;
44165;SDS011;30476;53.468;9.826;2024-02-15T13:17:40;6.40;;;5.17;;
44165;SDS011;30476;53.468;9.826;2024-02-15T13:20:09;5.57;;;4.97;;
44165;SDS011;30476;53.468;9.826;2024-02-15T13:22:42;5.40;;;4.60;;
44165;SDS011;30476;53.468;9.826;2024-02-15T13:25:09;4.73;;;4.33;;
44165;SDS011;30476;53.468;9.826;2024-02-15T13:27:36;4.40;;;4.10;;
44165;SDS011;30476;53.468;9.826;2024-02-15T13:30:05;4.80;;;4.40;;
44165;SDS011;30476;53.468;9.826;2024-02-15T13:32:38;6.83;;;4.73;;
44165;SDS011;30476;53.468;9.826;2024-02-15T13:35:09;4.00;;;3.80;;
44165;SDS011;30476;53.468;9.826;2024-02-15T13:37:40;5.93;;;5.33;;
44165;SDS011;30476;53.468;9.826;2024-02-15T13:40:08;5.13;;;4.77;;
44165;SDS011;30476;53.468;9.826;2024-02-15T13:42:46;5.03;;;4.63;;
44165;SDS011;30476;53.468;9.826;2024-02-15T13:45:21;4.50;;;4.10;;
44165;SDS011;30476;53.468;9.826;2024-02-15T13:47:48;5.27;;;4.87;;
44165;SDS011;30476;53.468;9.826;2024-02-15T13:50:18;5.00;;;4.50;;
44165;SDS011;30476;53.468;9.826;2024-02-15T13:52:44;5.80;;;5.40;;
44165;SDS011;30476;53.468;9.826;2024-02-15T13:55:14;6.80;;;4.50;;
44165;SDS011;30476;53.468;9.826;2024-02-15T13:57:42;6.07;;;4.40;;
44165;SDS011;30476;53.468;9.826;2024-02-15T14:00:09;4.27;;;3.90;;
44165;SDS011;30476;53.468;9.826;2024-02-15T14:02:40;5.90;;;4.97;;
44165;SDS011;30476;53.468;9.826;2024-02-15T14:05:08;7.73;;;4.97;;
44165;SDS011;30476;53.468;9.826;2024-02-15T14:07:36;4.27;;;3.93;;
44165;SDS011;30476;53.468;9.826;2024-02-15T14:10:04;4.83;;;4.53;;
44165;SDS011;30476;53.468;9.826;2024-02-15T14:12:31;4.10;;;3.70;;
44165;SDS011;30476;53.468;9.826;2024-02-15T14:14:57;3.93;;;3.73;;
44165;SDS011;30476;53.468;9.826;2024-02-15T14:17:23;4.47;;;4.17;;
44165;SDS011;30476;53.468;9.826;2024-02-15T14:19:49;5.20;;;4.70;;
44165;SDS011;30476;53.468;9.826;2024-02-15T14:22:15;5.03;;;4.57;;
44165;SDS011;30476;53.468;9.826;2024-02-15T14:24:41;7.03;;;4.70;;
44165;SDS011;30476;53.468;9.826;2024-02-15T14:27:09;4.73;;;4.37;;
44165;SDS011;30476;53.468;9.826;2024-02-15T14:29:39;4.70;;;4.30;;
44165;SDS011;30476;53.468;9.826;2024-02-15T14:32:25;4.77;;;4.30;;
44165;SDS011;30476;53.468;9.826;2024-02-15T14:35:10;4.07;;;3.67;;
44165;SDS011;30476;53.468;9.826;2024-02-15T14:37:36;5.80;;;4.90;;
44165;SDS011;30476;53.468;9.826;2024-02-15T14:40:05;3.83;;;3.50;;
44165;SDS011;30476;53.468;9.826;2024-02-15T14:45:54;5.40;;;3.90;;
44165;SDS011;30476;53.468;9.826;2024-02-15T14:48:21;4.47;;;4.07;;
44165;SDS011;30476;53.468;9.826;2024-02-15T14:50:49;5.27;;;4.80;;
44165;SDS011;30476;53.468;9.826;2024-02-15T14:53:15;4.50;;;4.10;;
44165;SDS011;30476;53.468;9.826;2024-02-15T14:55:43;6.40;;;4.20;;
44165;SDS011;30476;53.468;9.826;2024-02-15T14:58:14;4.33;;;3.93;;
44165;SDS011;30476;53.468;9.826;2024-02-15T15:00:41;5.17;;;4.67;;
44165;SDS011;30476;53.468;9.826;2024-02-15T15:03:10;5.33;;;4.07;;
44165;SDS011;30476;53.468;9.826;2024-02-15T15:05:42;5.77;;;4.13;;
44165;SDS011;30476;53.468;9.826;2024-02-15T15:08:27;5.50;;;4.63;;
44165;SDS011;30476;53.468;9.826;2024-02-15T15:11:12;6.13;;;4.40;;